createdAt,value
2016-05-21T00:00:15.889Z,0
2016-05-21T00:01:15.766Z,0
2016-05-21T00:02:15.925Z,0
2016-05-21T00:03:15.959Z,0
2016-05-21T00:04:15.664Z,0
2016-05-21T00:05:16.027Z,0
2016-05-21T00:06:16.029Z,0
2016-05-21T00:07:15.908Z,0
2016-05-21T00:08:15.941Z,0
2016-05-21T00:09:16.131Z,0
2016-05-21T00:10:15.837Z,0
2016-05-21T00:11:16.383Z,0
2016-05-21T00:12:16.230Z,0
2016-05-21T00:13:16.107Z,0
2016-05-21T00:14:16.313Z,0
2016-05-21T00:15:16.347Z,0
2016-05-21T00:16:16.405Z,0
2016-05-21T00:17:16.413Z,0
2016-05-21T00:18:16.297Z,0
2016-05-21T00:19:16.477Z,0
2016-05-21T00:20:16.516Z,0
2016-05-21T00:21:16.413Z,0
2016-05-21T00:22:16.419Z,0
2016-05-21T00:23:16.595Z,0
2016-05-21T00:24:16.492Z,0
2016-05-21T00:25:16.652Z,0
2016-05-21T00:26:17.468Z,0
2016-05-21T00:27:16.550Z,0
2016-05-21T00:28:16.741Z,0
2016-05-21T00:29:16.760Z,0
2016-05-21T00:30:16.638Z,0
2016-05-21T00:31:16.813Z,0
2016-05-21T00:32:16.848Z,0
2016-05-21T00:33:16.865Z,0
2016-05-21T00:34:16.743Z,0
2016-05-21T00:35:16.918Z,0
2016-05-21T00:36:16.936Z,0
2016-05-21T00:37:16.970Z,0
2016-05-21T00:38:16.692Z,0
2016-05-21T00:39:17.022Z,0
2016-05-21T00:40:17.056Z,0
2016-05-21T00:41:16.934Z,0
2016-05-21T00:42:16.952Z,0
2016-05-21T00:43:17.127Z,0
2016-05-21T00:44:17.144Z,0
2016-05-21T00:45:17.055Z,0
2016-05-21T00:46:17.229Z,0
2016-05-21T00:47:17.247Z,0
2016-05-21T00:48:17.266Z,0
2016-05-21T00:49:16.986Z,0
2016-05-21T00:50:17.318Z,0
2016-05-21T00:51:17.336Z,0
2016-05-21T00:52:17.369Z,0
2016-05-21T00:53:17.388Z,0
2016-05-21T00:54:17.421Z,0
2016-05-21T00:55:17.456Z,0
2016-05-21T00:56:18.052Z,0
2016-05-21T00:57:17.336Z,0
2016-05-21T00:58:17.510Z,0
2016-05-21T00:59:17.545Z,0
2016-05-21T01:00:17.563Z,0
2016-05-21T01:01:17.441Z,0
2016-05-21T01:02:17.615Z,0
2016-05-21T01:03:17.493Z,0
2016-05-21T01:04:17.684Z,0
2016-05-21T01:05:17.545Z,0
2016-05-21T01:06:17.736Z,0
2016-05-21T01:07:17.598Z,0
2016-05-21T01:08:17.631Z,0
2016-05-21T01:09:17.806Z,0
2016-05-21T01:10:17.824Z,0
2016-05-21T01:11:18.045Z,0
2016-05-21T01:12:17.736Z,0
2016-05-21T01:13:17.457Z,0
2016-05-21T01:14:17.929Z,0
2016-05-21T01:15:17.994Z,0
2016-05-21T01:16:17.981Z,0
2016-05-21T01:17:17.859Z,0
2016-05-21T01:18:18.033Z,0
2016-05-21T01:19:18.083Z,0
2016-05-21T01:20:18.102Z,0
2016-05-21T01:21:18.104Z,0
2016-05-21T01:22:18.169Z,0
2016-05-21T01:23:18.032Z,0
2016-05-21T01:24:18.049Z,0
2016-05-21T01:25:18.208Z,0
2016-05-21T01:26:18.695Z,0
2016-05-21T01:27:18.260Z,0
2016-05-21T01:28:18.295Z,0
2016-05-21T01:29:18.173Z,0
2016-05-21T01:30:18.347Z,0
2016-05-21T01:31:18.381Z,0
2016-05-21T01:32:18.399Z,0
2016-05-21T01:33:18.434Z,0
2016-05-21T01:34:18.451Z,0
2016-05-21T01:35:18.329Z,0
2016-05-21T01:36:18.504Z,0
2016-05-21T01:37:18.522Z,0
2016-05-21T01:38:18.540Z,0
2016-05-21T01:39:18.575Z,0
2016-05-21T01:40:18.483Z,0
2016-05-21T01:41:18.345Z,0
2016-05-21T01:42:18.676Z,0
2016-05-21T01:43:18.679Z,0
2016-05-21T01:44:18.714Z,0
2016-05-21T01:45:18.731Z,0
2016-05-21T01:46:18.765Z,0
2016-05-21T01:47:18.783Z,0
2016-05-21T01:48:18.661Z,0
2016-05-21T01:49:18.836Z,0
2016-05-21T01:50:18.557Z,0
2016-05-21T01:51:18.747Z,0
2016-05-21T01:52:18.921Z,0
2016-05-21T01:53:18.627Z,0
2016-05-21T01:54:18.974Z,0
2016-05-21T01:55:18.946Z,0
2016-05-21T01:56:18.871Z,0
2016-05-21T01:57:19.044Z,0
2016-05-21T01:58:18.751Z,0
2016-05-21T01:59:19.082Z,0
2016-05-21T02:00:19.115Z,0
2016-05-21T02:01:19.009Z,0
2016-05-21T02:02:19.167Z,0
2016-05-21T02:03:19.185Z,0
2016-05-21T02:04:19.251Z,0
2016-05-21T02:05:19.237Z,0
2016-05-21T02:06:19.287Z,0
2016-05-21T02:07:19.290Z,0
2016-05-21T02:08:19.214Z,0
2016-05-21T02:09:19.373Z,0
2016-05-21T02:10:19.392Z,0
2016-05-21T02:11:19.426Z,0
2016-05-21T02:12:19.429Z,0
2016-05-21T02:13:19.306Z,0
2016-05-21T02:14:19.184Z,0
2016-05-21T02:15:19.187Z,0
2016-05-21T02:16:19.533Z,0
2016-05-21T02:17:19.552Z,0
2016-05-21T02:18:19.413Z,0
2016-05-21T02:19:19.603Z,0
2016-05-21T02:20:19.763Z,0
2016-05-21T02:21:19.500Z,0
2016-05-21T02:22:19.674Z,0
2016-05-21T02:23:19.708Z,0
2016-05-21T02:24:19.727Z,0
2016-05-21T02:25:19.589Z,0
2016-05-21T02:26:19.654Z,0
2016-05-21T02:27:19.796Z,0
2016-05-21T02:28:19.691Z,0
2016-05-21T02:29:19.849Z,0
2016-05-21T02:30:19.868Z,0
2016-05-21T02:31:19.902Z,0
2016-05-21T02:32:19.763Z,0
2016-05-21T02:33:19.688Z,0
2016-05-21T02:34:19.987Z,0
2016-05-21T02:35:20.007Z,0
2016-05-21T02:36:20.039Z,0
2016-05-21T02:37:20.059Z,0
2016-05-21T02:38:20.077Z,0
2016-05-21T02:39:19.954Z,0
2016-05-21T02:40:20.004Z,0
2016-05-21T02:41:19.709Z,0
2016-05-21T02:42:20.040Z,0
2016-05-21T02:43:20.215Z,0
2016-05-21T02:44:20.077Z,0
2016-05-21T02:45:20.095Z,0
2016-05-21T02:46:20.300Z,0
2016-05-21T02:47:20.319Z,0
2016-05-21T02:48:20.353Z,0
2016-05-21T02:49:20.356Z,0
2016-05-21T02:50:20.391Z,0
2016-05-21T02:51:20.439Z,0
2016-05-21T02:52:20.521Z,0
2016-05-21T02:53:20.461Z,0
2016-05-21T02:54:20.510Z,0
2016-05-21T02:55:21.419Z,0
2016-05-21T02:56:20.641Z,0
2016-05-21T02:57:20.565Z,0
2016-05-21T02:58:20.443Z,0
2016-05-21T02:59:20.649Z,0
2016-05-21T03:00:20.511Z,0
2016-05-21T03:01:20.513Z,0
2016-05-21T03:02:20.687Z,0
2016-05-21T03:03:20.722Z,0
2016-05-21T03:04:20.599Z,0
2016-05-21T03:05:20.618Z,0
2016-05-21T03:06:20.479Z,0
2016-05-21T03:07:20.811Z,0
2016-05-21T03:08:20.376Z,0
2016-05-21T03:09:20.863Z,0
2016-05-21T03:10:20.740Z,0
2016-05-21T03:11:21.290Z,0
2016-05-21T03:12:20.934Z,0
2016-05-21T03:13:20.811Z,0
2016-05-21T03:14:20.986Z,0
2016-05-21T03:15:21.020Z,0
2016-05-21T03:16:21.053Z,0
2016-05-21T03:17:21.072Z,0
2016-05-21T03:18:20.950Z,0
2016-05-21T03:19:21.124Z,0
2016-05-21T03:20:20.987Z,0
2016-05-21T03:21:21.177Z,0
2016-05-21T03:22:21.039Z,0
2016-05-21T03:23:21.230Z,0
2016-05-21T03:24:21.263Z,0
2016-05-21T03:25:21.266Z,0
2016-05-21T03:26:21.643Z,0
2016-05-21T03:27:21.334Z,0
2016-05-21T03:28:21.336Z,0
2016-05-21T03:29:21.370Z,0
2016-05-21T03:30:21.404Z,0
2016-05-21T03:31:21.110Z,0
2016-05-21T03:32:21.440Z,0
2016-05-21T03:33:21.490Z,0
2016-05-21T03:34:21.493Z,0
2016-05-21T03:35:21.543Z,0
2016-05-21T03:36:21.389Z,0
2016-05-21T03:37:21.563Z,0
2016-05-21T03:38:21.598Z,0
2016-05-21T03:39:21.615Z,0
2016-05-21T03:40:21.493Z,0
2016-05-21T03:41:22.106Z,0
2016-05-21T03:42:21.701Z,0
2016-05-21T03:43:21.720Z,0
2016-05-21T03:44:21.598Z,0
2016-05-21T03:45:21.756Z,0
2016-05-21T03:46:21.791Z,0
2016-05-21T03:47:21.762Z,0
2016-05-21T03:48:21.843Z,0
2016-05-21T03:49:21.877Z,0
2016-05-21T03:50:21.895Z,0
2016-05-21T03:51:21.914Z,0
2016-05-21T03:52:21.947Z,0
2016-05-21T03:53:21.981Z,0
2016-05-21T03:54:21.844Z,0
2016-05-21T03:55:22.033Z,0
2016-05-21T03:56:22.771Z,0
2016-05-21T03:57:22.071Z,0
2016-05-21T03:58:22.105Z,0
2016-05-21T03:59:22.138Z,0
2016-05-21T04:00:22.000Z,0
2016-05-21T04:01:22.174Z,0
2016-05-21T04:02:22.193Z,0
2016-05-21T04:03:22.071Z,0
2016-05-21T04:04:22.090Z,0
2016-05-21T04:05:22.123Z,0
2016-05-21T04:06:22.298Z,0
2016-05-21T04:07:22.332Z,0
2016-05-21T04:08:22.193Z,0
2016-05-21T04:09:22.368Z,0
2016-05-21T04:10:22.402Z,0
2016-05-21T04:11:22.279Z,5
2016-05-21T04:12:22.454Z,5
2016-05-21T04:13:22.473Z,5
2016-05-21T04:14:22.507Z,5
2016-05-21T04:15:22.526Z,5
2016-05-21T04:16:22.559Z,0
2016-05-21T04:17:22.562Z,0
2016-05-21T04:18:22.705Z,5
2016-05-21T04:19:22.551Z,5
2016-05-21T04:20:22.351Z,5
2016-05-21T04:21:22.682Z,5
2016-05-21T04:22:22.700Z,5
2016-05-21T04:23:22.719Z,5
2016-05-21T04:24:22.752Z,5
2016-05-21T04:25:22.615Z,5
2016-05-21T04:26:23.085Z,5
2016-05-21T04:27:22.838Z,5
2016-05-21T04:28:22.872Z,5
2016-05-21T04:29:22.907Z,5
2016-05-21T04:30:22.753Z,5
2016-05-21T04:31:22.943Z,5
2016-05-21T04:32:22.946Z,5
2016-05-21T04:33:22.979Z,5
2016-05-21T04:34:22.998Z,5
2016-05-21T04:35:22.876Z,5
2016-05-21T04:36:23.050Z,5
2016-05-21T04:37:23.069Z,5
2016-05-21T04:38:22.634Z,5
2016-05-21T04:39:23.121Z,5
2016-05-21T04:40:23.155Z,5
2016-05-21T04:41:23.189Z,5
2016-05-21T04:42:23.207Z,5
2016-05-21T04:43:23.225Z,5
2016-05-21T04:44:23.243Z,5
2016-05-21T04:45:23.121Z,5
2016-05-21T04:46:22.999Z,5
2016-05-21T04:47:23.173Z,5
2016-05-21T04:48:23.348Z,5
2016-05-21T04:49:23.382Z,5
2016-05-21T04:50:23.401Z,10
2016-05-21T04:51:23.419Z,10
2016-05-21T04:52:23.453Z,10
2016-05-21T04:53:23.471Z,10
2016-05-21T04:54:23.505Z,10
2016-05-21T04:55:23.367Z,10
2016-05-21T04:56:23.401Z,10
2016-05-21T04:57:23.403Z,10
2016-05-21T04:58:23.437Z,10
2016-05-21T04:59:23.628Z,10
2016-05-21T05:00:23.505Z,10
2016-05-21T05:01:23.664Z,10
2016-05-21T05:02:23.385Z,10
2016-05-21T05:03:23.732Z,10
2016-05-21T05:04:23.282Z,10
2016-05-21T05:05:23.785Z,10
2016-05-21T05:06:23.662Z,10
2016-05-21T05:07:23.837Z,10
2016-05-21T05:08:23.698Z,10
2016-05-21T05:09:23.874Z,10
2016-05-21T05:10:23.907Z,10
2016-05-21T05:11:23.832Z,10
2016-05-21T05:12:23.632Z,10
2016-05-21T05:13:23.978Z,10
2016-05-21T05:14:23.996Z,10
2016-05-21T05:15:23.874Z,10
2016-05-21T05:16:24.049Z,15
2016-05-21T05:17:24.082Z,15
2016-05-21T05:18:24.101Z,10
2016-05-21T05:19:24.119Z,10
2016-05-21T05:20:24.153Z,15
2016-05-21T05:21:24.031Z,15
2016-05-21T05:22:24.205Z,15
2016-05-21T05:23:24.223Z,15
2016-05-21T05:24:24.258Z,15
2016-05-21T05:25:24.182Z,15
2016-05-21T05:26:24.513Z,15
2016-05-21T05:27:24.172Z,15
2016-05-21T05:28:24.346Z,15
2016-05-21T05:29:24.381Z,15
2016-05-21T05:30:24.242Z,15
2016-05-21T05:31:24.448Z,15
2016-05-21T05:32:24.294Z,20
2016-05-21T05:33:24.500Z,20
2016-05-21T05:34:24.503Z,15
2016-05-21T05:35:24.521Z,15
2016-05-21T05:36:24.541Z,15
2016-05-21T05:37:24.589Z,15
2016-05-21T05:38:24.607Z,10
2016-05-21T05:39:24.641Z,10
2016-05-21T05:40:24.660Z,10
2016-05-21T05:41:24.912Z,10
2016-05-21T05:42:24.728Z,10
2016-05-21T05:43:24.746Z,15
2016-05-21T05:44:24.765Z,15
2016-05-21T05:45:24.782Z,10
2016-05-21T05:46:24.801Z,10
2016-05-21T05:47:24.834Z,15
2016-05-21T05:48:24.759Z,15
2016-05-21T05:49:24.887Z,15
2016-05-21T05:50:24.921Z,15
2016-05-21T05:51:24.783Z,15
2016-05-21T05:52:25.051Z,15
2016-05-21T05:53:25.117Z,15
2016-05-21T05:54:25.103Z,15
2016-05-21T05:55:25.044Z,15
2016-05-21T05:56:25.391Z,20
2016-05-21T05:57:25.097Z,20
2016-05-21T05:58:25.114Z,20
2016-05-21T05:59:25.149Z,20
2016-05-21T06:00:25.166Z,20
2016-05-21T06:01:25.185Z,20
2016-05-21T06:02:25.219Z,20
2016-05-21T06:03:25.097Z,20
2016-05-21T06:04:25.272Z,20
2016-05-21T06:05:25.243Z,20
2016-05-21T06:06:25.214Z,20
2016-05-21T06:07:25.373Z,20
2016-05-21T06:08:25.376Z,20
2016-05-21T06:09:25.394Z,20
2016-05-21T06:10:25.272Z,20
2016-05-21T06:11:25.227Z,20
2016-05-21T06:12:25.465Z,20
2016-05-21T06:13:25.593Z,20
2016-05-21T06:14:25.485Z,15
2016-05-21T06:15:25.535Z,15
2016-05-21T06:16:25.366Z,15
2016-05-21T06:17:25.540Z,15
2016-05-21T06:18:25.637Z,15
2016-05-21T06:19:25.484Z,15
2016-05-21T06:20:25.673Z,15
2016-05-21T06:21:25.786Z,15
2016-05-21T06:22:25.257Z,20
2016-05-21T06:23:25.760Z,20
2016-05-21T06:24:25.794Z,20
2016-05-21T06:25:25.797Z,25
2016-05-21T06:26:26.362Z,25
2016-05-21T06:27:25.692Z,25
2016-05-21T06:28:25.883Z,25
2016-05-21T06:29:25.901Z,25
2016-05-21T06:30:25.950Z,25
2016-05-21T06:31:25.969Z,25
2016-05-21T06:32:25.987Z,25
2016-05-21T06:33:25.880Z,25
2016-05-21T06:34:26.039Z,25
2016-05-21T06:35:26.074Z,25
2016-05-21T06:36:26.092Z,25
2016-05-21T06:37:25.954Z,25
2016-05-21T06:38:25.988Z,25
2016-05-21T06:39:26.163Z,25
2016-05-21T06:40:26.197Z,25
2016-05-21T06:41:26.589Z,25
2016-05-21T06:42:26.249Z,25
2016-05-21T06:43:26.267Z,25
2016-05-21T06:44:26.285Z,25
2016-05-21T06:45:26.350Z,25
2016-05-21T06:46:26.368Z,25
2016-05-21T06:47:26.371Z,20
2016-05-21T06:48:26.406Z,25
2016-05-21T06:49:26.455Z,25
2016-05-21T06:50:26.317Z,25
2016-05-21T06:51:26.320Z,20
2016-05-21T06:52:26.509Z,20
2016-05-21T06:53:26.528Z,20
2016-05-21T06:54:26.406Z,15
2016-05-21T06:55:26.425Z,15
2016-05-21T06:56:26.864Z,15
2016-05-21T06:57:26.633Z,20
2016-05-21T06:58:26.667Z,20
2016-05-21T06:59:26.685Z,20
2016-05-21T07:00:26.719Z,15
2016-05-21T07:01:26.737Z,15
2016-05-21T07:02:26.786Z,15
2016-05-21T07:03:26.789Z,15
2016-05-21T07:04:26.808Z,15
2016-05-21T07:05:26.842Z,15
2016-05-21T07:06:26.860Z,15
2016-05-21T07:07:26.894Z,15
2016-05-21T07:08:26.913Z,15
2016-05-21T07:09:26.946Z,15
2016-05-21T07:10:26.979Z,15
2016-05-21T07:11:27.139Z,15
2016-05-21T07:12:27.032Z,15
2016-05-21T07:13:27.051Z,15
2016-05-21T07:14:27.069Z,15
2016-05-21T07:15:26.946Z,15
2016-05-21T07:16:27.121Z,15
2016-05-21T07:17:27.155Z,15
2016-05-21T07:18:27.174Z,15
2016-05-21T07:19:26.910Z,10
2016-05-21T07:20:27.085Z,15
2016-05-21T07:21:27.260Z,15
2016-05-21T07:22:27.293Z,15
2016-05-21T07:23:27.015Z,15
2016-05-21T07:24:27.330Z,15
2016-05-21T07:25:27.209Z,15
2016-05-21T07:26:27.351Z,15
2016-05-21T07:27:27.431Z,15
2016-05-21T07:28:27.295Z,15
2016-05-21T07:29:27.484Z,15
2016-05-21T07:30:27.503Z,15
2016-05-21T07:31:27.740Z,15
2016-05-21T07:32:27.555Z,15
2016-05-21T07:33:27.589Z,15
2016-05-21T07:34:27.607Z,15
2016-05-21T07:35:27.625Z,15
2016-05-21T07:36:27.347Z,20
2016-05-21T07:37:27.677Z,20
2016-05-21T07:38:27.711Z,15
2016-05-21T07:39:27.746Z,20
2016-05-21T07:40:27.764Z,20
2016-05-21T07:41:28.313Z,20
2016-05-21T07:42:27.832Z,20
2016-05-21T07:43:27.694Z,20
2016-05-21T07:44:27.868Z,15
2016-05-21T07:45:27.746Z,15
2016-05-21T07:46:27.780Z,15
2016-05-21T07:47:27.971Z,20
2016-05-21T07:48:27.832Z,20
2016-05-21T07:49:28.007Z,20
2016-05-21T07:50:27.729Z,20
2016-05-21T07:51:28.059Z,20
2016-05-21T07:52:28.092Z,20
2016-05-21T07:53:28.112Z,20
2016-05-21T07:54:28.004Z,25
2016-05-21T07:55:28.007Z,25
2016-05-21T07:56:28.042Z,25
2016-05-21T07:57:28.059Z,25
2016-05-21T07:58:28.094Z,25
2016-05-21T07:59:27.956Z,25
2016-05-21T08:00:28.318Z,25
2016-05-21T08:01:28.336Z,25
2016-05-21T08:02:28.370Z,25
2016-05-21T08:03:28.388Z,25
2016-05-21T08:04:28.406Z,25
2016-05-21T08:05:28.441Z,25
2016-05-21T08:06:28.303Z,20
2016-05-21T08:07:28.336Z,15
2016-05-21T08:08:28.511Z,15
2016-05-21T08:09:28.545Z,15
2016-05-21T08:10:28.563Z,15
2016-05-21T08:11:28.300Z,20
2016-05-21T08:12:28.632Z,20
2016-05-21T08:13:28.665Z,25
2016-05-21T08:14:28.684Z,25
2016-05-21T08:15:28.717Z,20
2016-05-21T08:16:28.752Z,15
2016-05-21T08:17:28.613Z,15
2016-05-21T08:18:28.788Z,15
2016-05-21T08:19:28.682Z,15
2016-05-21T08:20:28.856Z,15
2016-05-21T08:21:28.874Z,15
2016-05-21T08:22:28.909Z,15
2016-05-21T08:23:28.926Z,15
2016-05-21T08:24:28.945Z,20
2016-05-21T08:25:28.838Z,15
2016-05-21T08:26:29.215Z,15
2016-05-21T08:27:29.031Z,20
2016-05-21T08:28:28.909Z,25
2016-05-21T08:29:28.943Z,20
2016-05-21T08:30:29.117Z,20
2016-05-21T08:31:28.995Z,20
2016-05-21T08:32:29.200Z,20
2016-05-21T08:33:29.219Z,20
2016-05-21T08:34:29.253Z,15
2016-05-21T08:35:29.100Z,15
2016-05-21T08:36:29.134Z,15
2016-05-21T08:37:29.308Z,10
2016-05-21T08:38:29.327Z,10
2016-05-21T08:39:29.204Z,10
2016-05-21T08:40:29.410Z,10
2016-05-21T08:41:29.460Z,15
2016-05-21T08:42:29.290Z,15
2016-05-21T08:43:29.324Z,15
2016-05-21T08:44:29.530Z,15
2016-05-21T08:45:29.391Z,15
2016-05-21T08:46:29.566Z,20
2016-05-21T08:47:29.601Z,10
2016-05-21T08:48:29.635Z,15
2016-05-21T08:49:29.510Z,20
2016-05-21T08:50:29.699Z,15
2016-05-21T08:51:29.718Z,15
2016-05-21T08:52:29.423Z,20
2016-05-21T08:53:29.754Z,20
2016-05-21T08:54:29.788Z,20
2016-05-21T08:55:29.823Z,15
2016-05-21T08:56:30.465Z,15
2016-05-21T08:57:29.875Z,15
2016-05-21T08:58:29.893Z,20
2016-05-21T08:59:29.943Z,15
2016-05-21T09:00:29.976Z,10
2016-05-21T09:01:29.807Z,10
2016-05-21T09:02:29.872Z,10
2016-05-21T09:03:30.063Z,20
2016-05-21T09:04:30.065Z,15
2016-05-21T09:05:30.099Z,25
2016-05-21T09:06:29.993Z,30
2016-05-21T09:07:30.167Z,35
2016-05-21T09:08:30.186Z,25
2016-05-21T09:09:29.908Z,20
2016-05-21T09:10:30.239Z,25
2016-05-21T09:11:30.475Z,25
2016-05-21T09:12:30.306Z,25
2016-05-21T09:13:30.168Z,30
2016-05-21T09:14:30.046Z,30
2016-05-21T09:15:30.408Z,30
2016-05-21T09:16:30.254Z,30
2016-05-21T09:17:30.460Z,25
2016-05-21T09:18:30.500Z,20
2016-05-21T09:19:30.540Z,20
2016-05-21T09:20:30.594Z,25
2016-05-21T09:21:30.650Z,30
2016-05-21T09:22:30.549Z,30
2016-05-21T09:23:30.729Z,30
2016-05-21T09:24:30.615Z,35
2016-05-21T09:25:30.501Z,35
2016-05-21T09:26:30.855Z,30
2016-05-21T09:27:30.881Z,25
2016-05-21T09:28:30.901Z,20
2016-05-21T09:29:30.641Z,20
2016-05-21T09:30:30.834Z,20
2016-05-21T09:31:30.871Z,15
2016-05-21T09:32:30.908Z,15
2016-05-21T09:33:31.084Z,15
2016-05-21T09:34:31.102Z,15
2016-05-21T09:35:31.154Z,15
2016-05-21T09:36:31.173Z,15
2016-05-21T09:37:31.192Z,15
2016-05-21T09:38:31.086Z,15
2016-05-21T09:39:31.262Z,15
2016-05-21T09:40:31.280Z,20
2016-05-21T09:41:31.173Z,25
2016-05-21T09:42:31.333Z,20
2016-05-21T09:43:31.383Z,25
2016-05-21T09:44:31.401Z,30
2016-05-21T09:45:31.372Z,40
2016-05-21T09:46:31.468Z,40
2016-05-21T09:47:31.346Z,40
2016-05-21T09:48:31.537Z,40
2016-05-21T09:49:31.399Z,30
2016-05-21T09:50:31.275Z,30
2016-05-21T09:51:31.623Z,25
2016-05-21T09:52:31.641Z,30
2016-05-21T09:53:31.519Z,30
2016-05-21T09:54:31.693Z,30
2016-05-21T09:55:31.586Z,30
2016-05-21T09:56:31.902Z,15
2016-05-21T09:57:31.794Z,25
2016-05-21T09:58:31.829Z,25
2016-05-21T09:59:31.863Z,25
2016-05-21T10:00:31.897Z,25
2016-05-21T10:01:31.758Z,25
2016-05-21T10:02:31.949Z,30
2016-05-21T10:03:31.983Z,30
2016-05-21T10:04:32.002Z,30
2016-05-21T10:05:32.035Z,30
2016-05-21T10:06:31.913Z,30
2016-05-21T10:07:32.088Z,30
2016-05-21T10:08:32.121Z,45
2016-05-21T10:09:31.859Z,45
2016-05-21T10:10:32.190Z,45
2016-05-21T10:11:32.270Z,40
2016-05-21T10:12:32.242Z,40
2016-05-21T10:13:32.276Z,35
2016-05-21T10:14:31.997Z,35
2016-05-21T10:15:32.343Z,35
2016-05-21T10:16:32.377Z,40
2016-05-21T10:17:32.412Z,40
2016-05-21T10:18:32.445Z,40
2016-05-21T10:19:32.463Z,40
2016-05-21T10:20:32.341Z,45
2016-05-21T10:21:32.376Z,40
2016-05-21T10:22:32.565Z,40
2016-05-21T10:23:32.600Z,35
2016-05-21T10:24:32.665Z,35
2016-05-21T10:25:32.652Z,35
2016-05-21T10:26:32.919Z,35
2016-05-21T10:27:32.719Z,35
2016-05-21T10:28:32.738Z,35
2016-05-21T10:29:32.459Z,40
2016-05-21T10:30:32.805Z,35
2016-05-21T10:31:32.714Z,35
2016-05-21T10:32:32.717Z,35
2016-05-21T10:33:32.908Z,45
2016-05-21T10:34:32.957Z,60
2016-05-21T10:35:32.663Z,55
2016-05-21T10:36:32.869Z,55
2016-05-21T10:37:33.028Z,50
2016-05-21T10:38:33.062Z,55
2016-05-21T10:39:33.096Z,55
2016-05-21T10:40:33.130Z,45
2016-05-21T10:41:33.023Z,45
2016-05-21T10:42:33.197Z,35
2016-05-21T10:43:33.075Z,35
2016-05-21T10:44:33.265Z,35
2016-05-21T10:45:33.299Z,55
2016-05-21T10:46:33.317Z,60
2016-05-21T10:47:33.195Z,50
2016-05-21T10:48:33.385Z,30
2016-05-21T10:49:33.420Z,30
2016-05-21T10:50:33.437Z,55
2016-05-21T10:51:33.472Z,50
2016-05-21T10:52:33.365Z,40
2016-05-21T10:53:33.399Z,25
2016-05-21T10:54:33.589Z,50
2016-05-21T10:55:33.154Z,35
2016-05-21T10:56:33.439Z,35
2016-05-21T10:57:33.676Z,55
2016-05-21T10:58:33.708Z,60
2016-05-21T10:59:33.603Z,45
2016-05-21T11:00:33.777Z,30
2016-05-21T11:01:33.795Z,30
2016-05-21T11:02:33.844Z,40
2016-05-21T11:03:33.723Z,60
2016-05-21T11:04:33.913Z,50
2016-05-21T11:05:33.946Z,50
2016-05-21T11:06:33.980Z,50
2016-05-21T11:07:33.999Z,40
2016-05-21T11:08:34.064Z,30
2016-05-21T11:09:33.910Z,35
2016-05-21T11:10:34.101Z,45
2016-05-21T11:11:34.229Z,60
2016-05-21T11:12:34.013Z,55
2016-05-21T11:13:34.062Z,50
2016-05-21T11:14:34.080Z,50
2016-05-21T11:15:34.271Z,50
2016-05-21T11:16:34.148Z,45
2016-05-21T11:17:34.323Z,45
2016-05-21T11:18:34.373Z,50
2016-05-21T11:19:34.406Z,50
2016-05-21T11:20:34.440Z,50
2016-05-21T11:21:34.568Z,50
2016-05-21T11:22:34.508Z,50
2016-05-21T11:23:34.386Z,50
2016-05-21T11:24:34.670Z,50
2016-05-21T11:25:34.594Z,55
2016-05-21T11:26:34.597Z,55
2016-05-21T11:27:34.943Z,35
2016-05-21T11:28:34.697Z,60
2016-05-21T11:29:34.667Z,45
2016-05-21T11:30:34.608Z,70
2016-05-21T11:31:34.797Z,85
2016-05-21T11:32:34.847Z,85
2016-05-21T11:33:34.881Z,85
2016-05-21T11:34:34.916Z,80
2016-05-21T11:35:34.949Z,75
2016-05-21T11:36:34.827Z,70
2016-05-21T11:37:34.846Z,65
2016-05-21T11:38:35.192Z,60
2016-05-21T11:39:35.194Z,65
2016-05-21T11:40:35.104Z,60
2016-05-21T11:41:35.090Z,60
2016-05-21T11:42:35.577Z,60
2016-05-21T11:43:35.064Z,60
2016-05-21T11:44:35.099Z,55
2016-05-21T11:45:35.273Z,50
2016-05-21T11:46:35.151Z,60
2016-05-21T11:47:35.341Z,75
2016-05-21T11:48:35.219Z,75
2016-05-21T11:49:35.253Z,65
2016-05-21T11:50:35.443Z,60
2016-05-21T11:51:35.476Z,55
2016-05-21T11:52:35.526Z,50
2016-05-21T11:53:35.576Z,45
2016-05-21T11:54:35.578Z,45
2016-05-21T11:55:35.722Z,40
2016-05-21T11:56:35.506Z,45
2016-05-21T11:57:35.946Z,50
2016-05-21T11:58:35.417Z,45
2016-05-21T11:59:35.608Z,55
2016-05-21T12:00:35.797Z,70
2016-05-21T12:01:35.831Z,60
2016-05-21T12:02:35.912Z,60
2016-05-21T12:03:35.744Z,65
2016-05-21T12:04:35.794Z,70
2016-05-21T12:05:35.967Z,70
2016-05-21T12:06:35.844Z,65
2016-05-21T12:07:36.051Z,65
2016-05-21T12:08:36.069Z,70
2016-05-21T12:09:35.963Z,70
2016-05-21T12:10:35.997Z,65
2016-05-21T12:11:35.999Z,70
2016-05-21T12:12:36.330Z,70
2016-05-21T12:13:36.363Z,70
2016-05-21T12:14:36.132Z,70
2016-05-21T12:15:36.323Z,70
2016-05-21T12:16:36.357Z,75
2016-05-21T12:17:36.390Z,70
2016-05-21T12:18:36.440Z,70
2016-05-21T12:19:36.459Z,70
2016-05-21T12:20:36.351Z,65
2016-05-21T12:21:36.542Z,65
2016-05-21T12:22:36.576Z,65
2016-05-21T12:23:36.625Z,60
2016-05-21T12:24:36.643Z,75
2016-05-21T12:25:36.678Z,75
2016-05-21T12:26:37.273Z,75
2016-05-21T12:27:36.948Z,70
2016-05-21T12:28:36.483Z,70
2016-05-21T12:29:36.813Z,75
2016-05-21T12:30:36.784Z,75
2016-05-21T12:31:36.881Z,75
2016-05-21T12:32:36.931Z,75
2016-05-21T12:33:36.809Z,70
2016-05-21T12:34:36.999Z,70
2016-05-21T12:35:37.033Z,65
2016-05-21T12:36:36.925Z,60
2016-05-21T12:37:36.944Z,55
2016-05-21T12:38:37.134Z,45
2016-05-21T12:39:37.059Z,60
2016-05-21T12:40:37.311Z,65
2016-05-21T12:41:37.048Z,65
2016-05-21T12:42:37.067Z,45
2016-05-21T12:43:37.382Z,65
2016-05-21T12:44:37.401Z,60
2016-05-21T12:45:37.404Z,60
2016-05-21T12:46:37.421Z,65
2016-05-21T12:47:37.143Z,65
2016-05-21T12:48:37.364Z,55
2016-05-21T12:49:37.554Z,50
2016-05-21T12:50:37.573Z,50
2016-05-21T12:51:37.451Z,70
2016-05-21T12:52:37.641Z,85
2016-05-21T12:53:37.675Z,85
2016-05-21T12:54:37.724Z,75
2016-05-21T12:55:37.836Z,70
2016-05-21T12:56:38.104Z,70
2016-05-21T12:57:37.998Z,65
2016-05-21T12:58:37.719Z,65
2016-05-21T12:59:37.894Z,70
2016-05-21T13:00:37.928Z,45
2016-05-21T13:01:37.806Z,50
2016-05-21T13:02:37.995Z,65
2016-05-21T13:03:37.889Z,70
2016-05-21T13:04:37.923Z,75
2016-05-21T13:05:38.128Z,70
2016-05-21T13:06:37.991Z,70
2016-05-21T13:07:38.180Z,65
2016-05-21T13:08:38.355Z,70
2016-05-21T13:09:38.249Z,75
2016-05-21T13:10:38.314Z,80
2016-05-21T13:11:38.583Z,80
2016-05-21T13:12:38.382Z,85
2016-05-21T13:13:38.400Z,85
2016-05-21T13:14:38.434Z,85
2016-05-21T13:15:38.469Z,85
2016-05-21T13:16:38.361Z,80
2016-05-21T13:17:38.567Z,80
2016-05-21T13:18:38.585Z,80
2016-05-21T13:19:38.573Z,60
2016-05-21T13:20:38.513Z,60
2016-05-21T13:21:38.703Z,80
2016-05-21T13:22:38.737Z,80
2016-05-21T13:23:38.787Z,75
2016-05-21T13:24:38.664Z,60
2016-05-21T13:25:38.698Z,65
2016-05-21T13:26:38.826Z,75
2016-05-21T13:27:38.922Z,80
2016-05-21T13:28:38.894Z,75
2016-05-21T13:29:38.990Z,75
2016-05-21T13:30:39.040Z,75
2016-05-21T13:31:39.074Z,75
2016-05-21T13:32:38.951Z,60
2016-05-21T13:33:38.985Z,50
2016-05-21T13:34:39.035Z,50
2016-05-21T13:35:39.225Z,45
2016-05-21T13:36:39.259Z,45
2016-05-21T13:37:39.231Z,45
2016-05-21T13:38:39.327Z,40
2016-05-21T13:39:39.470Z,40
2016-05-21T13:40:39.504Z,40
2016-05-21T13:41:39.351Z,40
2016-05-21T13:42:39.838Z,55
2016-05-21T13:43:39.527Z,55
2016-05-21T13:44:39.562Z,65
2016-05-21T13:45:39.690Z,95
2016-05-21T13:46:39.333Z,85
2016-05-21T13:47:39.523Z,85
2016-05-21T13:48:39.823Z,75
2016-05-21T13:49:39.607Z,70
2016-05-21T13:50:39.749Z,60
2016-05-21T13:51:39.815Z,50
2016-05-21T13:52:39.552Z,60
2016-05-21T13:53:39.757Z,75
2016-05-21T13:54:39.949Z,75
2016-05-21T13:55:39.826Z,80
2016-05-21T13:56:40.031Z,75
2016-05-21T13:57:40.050Z,80
2016-05-21T13:58:40.084Z,75
2016-05-21T13:59:40.009Z,75
2016-05-21T14:00:40.151Z,80
2016-05-21T14:01:40.201Z,80
2016-05-21T14:02:40.236Z,80
2016-05-21T14:03:40.145Z,80
2016-05-21T14:04:40.303Z,85
2016-05-21T14:05:40.446Z,85
2016-05-21T14:06:40.386Z,70
2016-05-21T14:07:40.280Z,80
2016-05-21T14:08:40.469Z,60
2016-05-21T14:09:40.347Z,50
2016-05-21T14:10:40.382Z,45
2016-05-21T14:11:40.635Z,40
2016-05-21T14:12:40.309Z,40
2016-05-21T14:13:40.655Z,35
2016-05-21T14:14:40.377Z,35
2016-05-21T14:15:40.583Z,40
2016-05-21T14:16:40.773Z,45
2016-05-21T14:17:40.822Z,45
2016-05-21T14:18:40.841Z,50
2016-05-21T14:19:40.874Z,50
2016-05-21T14:20:40.924Z,60
2016-05-21T14:21:40.957Z,50
2016-05-21T14:22:41.023Z,50
2016-05-21T14:23:41.026Z,45
2016-05-21T14:24:41.060Z,70
2016-05-21T14:25:41.109Z,55